sensor_id;sensor_type;location;lat;lon;timestamp;P1;durP1;ratioP1;P2;durP2;ratioP2
48777;SDS011;34578;0.000;0.000;2023-07-28T00:00:35;3.70;;;0.90;;
48777;SDS011;34578;0.000;0.000;2023-07-28T00:05:36;2.50;;;1.07;;
48777;SDS011;34578;0.000;0.000;2023-07-28T00:10:40;1.50;;;0.85;;
48777;SDS011;34578;0.000;0.000;2023-07-28T00:15:42;1.27;;;0.90;;
48777;SDS011;34578;0.000;0.000;2023-07-28T00:20:42;1.10;;;1.00;;
48777;SDS011;34578;0.000;0.000;2023-07-28T00:25:43;1.10;;;0.80;;
48777;SDS011;34578;0.000;0.000;2023-07-28T00:30:43;5.40;;;1.40;;
48777;SDS011;34578;0.000;0.000;2023-07-28T00:35:43;1.50;;;1.40;;
48777;SDS011;34578;0.000;0.000;2023-07-28T00:40:44;1.73;;;1.25;;
48777;SDS011;34578;0.000;0.000;2023-07-28T00:45:46;1.27;;;0.98;;
48777;SDS011;34578;0.000;0.000;2023-07-28T00:50:47;1.20;;;1.10;;
48777;SDS011;34578;0.000;0.000;2023-07-28T00:55:48;1.42;;;1.10;;
48777;SDS011;34578;0.000;0.000;2023-07-28T01:00:49;2.05;;;1.25;;
48777;SDS011;34578;0.000;0.000;2023-07-28T01:05:58;1.17;;;1.05;;
48777;SDS011;34578;0.000;0.000;2023-07-28T01:11:09;1.10;;;1.00;;
48777;SDS011;34578;0.000;0.000;2023-07-28T01:16:10;2.80;;;0.82;;
48777;SDS011;34578;0.000;0.000;2023-07-28T01:21:14;0.90;;;0.80;;
48777;SDS011;34578;0.000;0.000;2023-07-28T01:26:36;1.40;;;1.13;;
48777;SDS011;34578;0.000;0.000;2023-07-28T01:31:38;3.07;;;1.40;;
48777;SDS011;34578;0.000;0.000;2023-07-28T01:36:39;1.83;;;1.30;;
48777;SDS011;34578;0.000;0.000;2023-07-28T01:41:42;0.98;;;0.95;;
48777;SDS011;34578;0.000;0.000;2023-07-28T01:46:44;1.27;;;0.93;;
48777;SDS011;34578;0.000;0.000;2023-07-28T01:51:44;1.43;;;1.00;;
48777;SDS011;34578;0.000;0.000;2023-07-28T01:56:45;1.05;;;0.98;;
48777;SDS011;34578;0.000;0.000;2023-07-28T02:01:46;1.33;;;1.17;;
48777;SDS011;34578;0.000;0.000;2023-07-28T02:06:46;0.95;;;0.88;;
48777;SDS011;34578;0.000;0.000;2023-07-28T02:11:47;1.45;;;1.05;;
48777;SDS011;34578;0.000;0.000;2023-07-28T02:16:47;3.87;;;1.20;;
48777;SDS011;34578;0.000;0.000;2023-07-28T02:21:48;2.20;;;1.20;;
48777;SDS011;34578;0.000;0.000;2023-07-28T02:26:48;1.95;;;1.73;;
48777;SDS011;34578;0.000;0.000;2023-07-28T02:31:49;2.00;;;1.30;;
48777;SDS011;34578;0.000;0.000;2023-07-28T02:36:49;1.40;;;1.10;;
48777;SDS011;34578;0.000;0.000;2023-07-28T02:41:49;1.10;;;1.00;;
48777;SDS011;34578;0.000;0.000;2023-07-28T02:46:50;1.17;;;0.90;;
48777;SDS011;34578;0.000;0.000;2023-07-28T02:51:50;1.27;;;1.10;;
48777;SDS011;34578;0.000;0.000;2023-07-28T02:56:51;3.17;;;1.13;;
48777;SDS011;34578;0.000;0.000;2023-07-28T03:01:52;1.70;;;1.27;;
48777;SDS011;34578;0.000;0.000;2023-07-28T03:06:52;1.80;;;1.52;;
48777;SDS011;34578;0.000;0.000;2023-07-28T03:11:53;1.55;;;1.00;;
48777;SDS011;34578;0.000;0.000;2023-07-28T03:16:53;1.60;;;1.17;;
48777;SDS011;34578;0.000;0.000;2023-07-28T03:21:54;3.43;;;1.50;;
48777;SDS011;34578;0.000;0.000;2023-07-28T03:26:54;2.25;;;1.60;;
48777;SDS011;34578;0.000;0.000;2023-07-28T03:31:55;4.30;;;1.53;;
48777;SDS011;34578;0.000;0.000;2023-07-28T03:36:55;2.88;;;1.52;;
48777;SDS011;34578;0.000;0.000;2023-07-28T03:41:56;1.00;;;0.85;;
48777;SDS011;34578;0.000;0.000;2023-07-28T03:46:57;1.95;;;1.02;;
48777;SDS011;34578;0.000;0.000;2023-07-28T03:51:57;1.38;;;1.27;;
48777;SDS011;34578;0.000;0.000;2023-07-28T03:56:58;2.45;;;1.52;;
48777;SDS011;34578;0.000;0.000;2023-07-28T04:01:58;1.43;;;1.20;;
48777;SDS011;34578;0.000;0.000;2023-07-28T04:06:59;3.38;;;1.90;;
48777;SDS011;34578;0.000;0.000;2023-07-28T04:11:59;1.80;;;1.63;;
48777;SDS011;34578;0.000;0.000;2023-07-28T04:17:00;6.13;;;2.07;;
48777;SDS011;34578;0.000;0.000;2023-07-28T04:22:00;3.77;;;1.83;;
48777;SDS011;34578;0.000;0.000;2023-07-28T04:27:02;4.40;;;1.98;;
48777;SDS011;34578;0.000;0.000;2023-07-28T04:32:03;2.65;;;1.90;;
48777;SDS011;34578;0.000;0.000;2023-07-28T04:37:07;2.00;;;1.80;;
48777;SDS011;34578;0.000;0.000;2023-07-28T04:42:24;1.45;;;1.23;;
48777;SDS011;34578;0.000;0.000;2023-07-28T04:47:25;2.88;;;1.58;;
48777;SDS011;34578;0.000;0.000;2023-07-28T04:52:25;2.17;;;1.33;;
48777;SDS011;34578;0.000;0.000;2023-07-28T04:57:41;4.13;;;2.00;;
48777;SDS011;34578;0.000;0.000;2023-07-28T05:02:42;2.47;;;1.40;;
48777;SDS011;34578;0.000;0.000;2023-07-28T05:07:42;4.50;;;1.70;;
48777;SDS011;34578;0.000;0.000;2023-07-28T05:12:47;5.50;;;2.17;;
48777;SDS011;34578;0.000;0.000;2023-07-28T05:17:47;3.42;;;1.85;;
48777;SDS011;34578;0.000;0.000;2023-07-28T05:23:05;4.50;;;1.23;;
48777;SDS011;34578;0.000;0.000;2023-07-28T05:28:05;2.57;;;1.37;;
48777;SDS011;34578;0.000;0.000;2023-07-28T05:33:08;3.80;;;1.58;;
48777;SDS011;34578;0.000;0.000;2023-07-28T05:38:17;3.65;;;1.85;;
48777;SDS011;34578;0.000;0.000;2023-07-28T05:43:18;1.40;;;1.23;;
48777;SDS011;34578;0.000;0.000;2023-07-28T05:48:18;3.08;;;1.60;;
48777;SDS011;34578;0.000;0.000;2023-07-28T05:53:19;3.90;;;1.70;;
48777;SDS011;34578;0.000;0.000;2023-07-28T05:58:28;7.30;;;1.95;;
48777;SDS011;34578;0.000;0.000;2023-07-28T06:03:28;6.17;;;1.53;;
48777;SDS011;34578;0.000;0.000;2023-07-28T06:08:38;4.05;;;2.15;;
48777;SDS011;34578;0.000;0.000;2023-07-28T06:13:39;3.85;;;1.98;;
48777;SDS011;34578;0.000;0.000;2023-07-28T06:18:39;3.00;;;1.67;;
48777;SDS011;34578;0.000;0.000;2023-07-28T06:23:45;3.20;;;1.70;;
48777;SDS011;34578;0.000;0.000;2023-07-28T06:28:45;4.00;;;1.25;;
48777;SDS011;34578;0.000;0.000;2023-07-28T06:33:46;2.83;;;1.70;;
48777;SDS011;34578;0.000;0.000;2023-07-28T06:38:47;1.42;;;1.27;;
48777;SDS011;34578;0.000;0.000;2023-07-28T06:43:49;4.70;;;1.50;;
48777;SDS011;34578;0.000;0.000;2023-07-28T06:48:49;4.63;;;1.70;;
48777;SDS011;34578;0.000;0.000;2023-07-28T06:53:50;4.63;;;1.33;;
48777;SDS011;34578;0.000;0.000;2023-07-28T06:58:51;4.78;;;1.67;;
48777;SDS011;34578;0.000;0.000;2023-07-28T07:03:51;3.63;;;1.90;;
48777;SDS011;34578;0.000;0.000;2023-07-28T07:08:52;2.90;;;1.83;;
48777;SDS011;34578;0.000;0.000;2023-07-28T07:13:52;2.30;;;1.50;;
48777;SDS011;34578;0.000;0.000;2023-07-28T07:18:53;2.80;;;1.40;;
48777;SDS011;34578;0.000;0.000;2023-07-28T07:23:53;4.25;;;1.35;;
48777;SDS011;34578;0.000;0.000;2023-07-28T07:28:59;3.17;;;1.52;;
48777;SDS011;34578;0.000;0.000;2023-07-28T07:34:00;1.13;;;1.00;;
48777;SDS011;34578;0.000;0.000;2023-07-28T07:39:00;1.67;;;1.40;;
48777;SDS011;34578;0.000;0.000;2023-07-28T07:44:01;1.40;;;1.20;;
48777;SDS011;34578;0.000;0.000;2023-07-28T07:49:02;1.73;;;1.40;;
48777;SDS011;34578;0.000;0.000;2023-07-28T07:54:05;4.57;;;2.15;;
48777;SDS011;34578;0.000;0.000;2023-07-28T07:59:06;3.57;;;2.10;;
48777;SDS011;34578;0.000;0.000;2023-07-28T08:04:07;3.73;;;2.07;;
48777;SDS011;34578;0.000;0.000;2023-07-28T08:09:08;2.55;;;1.70;;
48777;SDS011;34578;0.000;0.000;2023-07-28T08:14:09;1.73;;;1.60;;
48777;SDS011;34578;0.000;0.000;2023-07-28T08:19:10;3.90;;;2.10;;
48777;SDS011;34578;0.000;0.000;2023-07-28T08:24:10;2.65;;;1.60;;
48777;SDS011;34578;0.000;0.000;2023-07-28T08:29:12;6.00;;;1.42;;
48777;SDS011;34578;0.000;0.000;2023-07-28T08:34:12;1.40;;;1.30;;
48777;SDS011;34578;0.000;0.000;2023-07-28T08:39:13;3.22;;;1.70;;
48777;SDS011;34578;0.000;0.000;2023-07-28T08:44:15;1.83;;;1.50;;
48777;SDS011;34578;0.000;0.000;2023-07-28T08:49:16;5.53;;;2.20;;
48777;SDS011;34578;0.000;0.000;2023-07-28T08:54:16;12.70;;;2.37;;
48777;SDS011;34578;0.000;0.000;2023-07-28T08:59:20;8.73;;;3.00;;
48777;SDS011;34578;0.000;0.000;2023-07-28T09:04:26;12.90;;;2.50;;
48777;SDS011;34578;0.000;0.000;2023-07-28T09:09:26;7.93;;;2.30;;
48777;SDS011;34578;0.000;0.000;2023-07-28T09:14:33;18.67;;;2.85;;
48777;SDS011;34578;0.000;0.000;2023-07-28T09:19:48;14.65;;;2.83;;
48777;SDS011;34578;0.000;0.000;2023-07-28T09:24:50;5.75;;;2.90;;
48777;SDS011;34578;0.000;0.000;2023-07-28T09:29:52;9.18;;;3.13;;
48777;SDS011;34578;0.000;0.000;2023-07-28T09:35:11;13.55;;;4.63;;
48777;SDS011;34578;0.000;0.000;2023-07-28T09:40:13;16.73;;;3.25;;
48777;SDS011;34578;0.000;0.000;2023-07-28T09:45:17;6.32;;;2.25;;
48777;SDS011;34578;0.000;0.000;2023-07-28T09:50:18;12.07;;;3.03;;
48777;SDS011;34578;0.000;0.000;2023-07-28T09:55:24;12.37;;;3.43;;
48777;SDS011;34578;0.000;0.000;2023-07-28T10:00:24;15.70;;;5.32;;
48777;SDS011;34578;0.000;0.000;2023-07-28T10:05:26;14.93;;;4.18;;
48777;SDS011;34578;0.000;0.000;2023-07-28T10:10:27;8.07;;;3.83;;
48777;SDS011;34578;0.000;0.000;2023-07-28T10:15:29;25.48;;;5.13;;
48777;SDS011;34578;0.000;0.000;2023-07-28T10:20:32;20.20;;;5.38;;
48777;SDS011;34578;0.000;0.000;2023-07-28T10:25:35;7.15;;;3.00;;
48777;SDS011;34578;0.000;0.000;2023-07-28T10:30:38;14.55;;;3.78;;
48777;SDS011;34578;0.000;0.000;2023-07-28T10:35:50;22.15;;;5.93;;
48777;SDS011;34578;0.000;0.000;2023-07-28T10:40:51;13.60;;;3.97;;
48777;SDS011;34578;0.000;0.000;2023-07-28T10:45:51;17.17;;;3.27;;
48777;SDS011;34578;0.000;0.000;2023-07-28T10:50:51;10.73;;;4.00;;
48777;SDS011;34578;0.000;0.000;2023-07-28T10:55:52;8.90;;;3.92;;
48777;SDS011;34578;0.000;0.000;2023-07-28T11:00:53;37.83;;;7.22;;
48777;SDS011;34578;0.000;0.000;2023-07-28T11:05:53;20.90;;;4.87;;
48777;SDS011;34578;0.000;0.000;2023-07-28T11:10:55;21.48;;;5.70;;
48777;SDS011;34578;0.000;0.000;2023-07-28T11:15:55;16.50;;;6.50;;
48777;SDS011;34578;0.000;0.000;2023-07-28T11:20:55;18.73;;;6.03;;
48777;SDS011;34578;0.000;0.000;2023-07-28T11:25:56;15.57;;;5.03;;
48777;SDS011;34578;0.000;0.000;2023-07-28T11:30:56;20.07;;;4.40;;
48777;SDS011;34578;0.000;0.000;2023-07-28T11:35:57;13.85;;;5.28;;
48777;SDS011;34578;0.000;0.000;2023-07-28T11:40:57;13.00;;;3.90;;
48777;SDS011;34578;0.000;0.000;2023-07-28T11:45:58;14.27;;;4.18;;
48777;SDS011;34578;0.000;0.000;2023-07-28T11:50:58;12.82;;;5.05;;
48777;SDS011;34578;0.000;0.000;2023-07-28T11:56:00;10.05;;;3.75;;
48777;SDS011;34578;0.000;0.000;2023-07-28T12:01:07;11.35;;;4.50;;
48777;SDS011;34578;0.000;0.000;2023-07-28T12:06:08;9.93;;;3.80;;
48777;SDS011;34578;0.000;0.000;2023-07-28T12:11:13;9.98;;;3.33;;
48777;SDS011;34578;0.000;0.000;2023-07-28T12:21:39;9.55;;;3.55;;
48777;SDS011;34578;0.000;0.000;2023-07-28T12:26:39;11.77;;;3.53;;
48777;SDS011;34578;0.000;0.000;2023-07-28T12:31:40;9.85;;;3.67;;
48777;SDS011;34578;0.000;0.000;2023-07-28T12:36:41;9.47;;;3.50;;
48777;SDS011;34578;0.000;0.000;2023-07-28T12:41:41;8.60;;;3.75;;
48777;SDS011;34578;0.000;0.000;2023-07-28T12:46:41;6.23;;;3.20;;
48777;SDS011;34578;0.000;0.000;2023-07-28T12:51:42;8.63;;;3.17;;
48777;SDS011;34578;0.000;0.000;2023-07-28T12:56:42;5.27;;;2.77;;
48777;SDS011;34578;0.000;0.000;2023-07-28T13:01:43;5.63;;;2.60;;
48777;SDS011;34578;0.000;0.000;2023-07-28T13:06:43;6.13;;;3.67;;
48777;SDS011;34578;0.000;0.000;2023-07-28T13:11:44;6.57;;;2.83;;
48777;SDS011;34578;0.000;0.000;2023-07-28T13:16:44;5.00;;;2.80;;
48777;SDS011;34578;0.000;0.000;2023-07-28T13:21:44;6.30;;;2.90;;
48777;SDS011;34578;0.000;0.000;2023-07-28T13:26:45;5.53;;;2.37;;
48777;SDS011;34578;0.000;0.000;2023-07-28T13:31:45;8.53;;;2.70;;
48777;SDS011;34578;0.000;0.000;2023-07-28T13:36:45;3.40;;;2.60;;
48777;SDS011;34578;0.000;0.000;2023-07-28T13:41:46;10.10;;;3.37;;
48777;SDS011;34578;0.000;0.000;2023-07-28T13:46:46;6.63;;;2.30;;
48777;SDS011;34578;0.000;0.000;2023-07-28T13:51:46;5.73;;;2.00;;
48777;SDS011;34578;0.000;0.000;2023-07-28T13:56:47;6.30;;;2.30;;
48777;SDS011;34578;0.000;0.000;2023-07-28T14:01:48;4.70;;;2.72;;
48777;SDS011;34578;0.000;0.000;2023-07-28T14:06:49;5.30;;;2.65;;
48777;SDS011;34578;0.000;0.000;2023-07-28T14:11:49;8.93;;;3.43;;
48777;SDS011;34578;0.000;0.000;2023-07-28T14:16:49;6.40;;;3.27;;
48777;SDS011;34578;0.000;0.000;2023-07-28T14:21:50;5.25;;;3.15;;
48777;SDS011;34578;0.000;0.000;2023-07-28T14:26:50;7.67;;;2.33;;
48777;SDS011;34578;0.000;0.000;2023-07-28T14:31:50;5.03;;;2.40;;
48777;SDS011;34578;0.000;0.000;2023-07-28T14:36:51;6.20;;;2.37;;
48777;SDS011;34578;0.000;0.000;2023-07-28T14:41:51;3.42;;;1.80;;
48777;SDS011;34578;0.000;0.000;2023-07-28T14:46:52;4.47;;;1.93;;
48777;SDS011;34578;0.000;0.000;2023-07-28T14:51:52;6.37;;;2.77;;
48777;SDS011;34578;0.000;0.000;2023-07-28T14:56:52;6.90;;;2.10;;
48777;SDS011;34578;0.000;0.000;2023-07-28T15:01:53;3.73;;;1.97;;
48777;SDS011;34578;0.000;0.000;2023-07-28T15:06:53;4.60;;;2.37;;
48777;SDS011;34578;0.000;0.000;2023-07-28T15:11:53;4.53;;;2.73;;
48777;SDS011;34578;0.000;0.000;2023-07-28T15:16:54;4.03;;;2.40;;
48777;SDS011;34578;0.000;0.000;2023-07-28T15:21:54;3.93;;;2.10;;
48777;SDS011;34578;0.000;0.000;2023-07-28T15:26:54;2.77;;;2.07;;
48777;SDS011;34578;0.000;0.000;2023-07-28T15:31:55;2.90;;;2.03;;
48777;SDS011;34578;0.000;0.000;2023-07-28T15:36:55;10.07;;;2.67;;
48777;SDS011;34578;0.000;0.000;2023-07-28T15:41:56;5.88;;;2.20;;
48777;SDS011;34578;0.000;0.000;2023-07-28T15:46:59;11.20;;;2.75;;
48777;SDS011;34578;0.000;0.000;2023-07-28T15:51:59;19.23;;;2.97;;
48777;SDS011;34578;0.000;0.000;2023-07-28T15:56:59;17.47;;;3.47;;
48777;SDS011;34578;0.000;0.000;2023-07-28T16:02:00;8.20;;;2.73;;
48777;SDS011;34578;0.000;0.000;2023-07-28T16:07:00;12.02;;;2.83;;
48777;SDS011;34578;0.000;0.000;2023-07-28T16:12:00;10.37;;;3.17;;
48777;SDS011;34578;0.000;0.000;2023-07-28T16:17:01;8.50;;;2.80;;
48777;SDS011;34578;0.000;0.000;2023-07-28T16:22:01;5.37;;;1.80;;
48777;SDS011;34578;0.000;0.000;2023-07-28T16:27:02;8.23;;;2.05;;
48777;SDS011;34578;0.000;0.000;2023-07-28T16:32:02;4.72;;;1.92;;
48777;SDS011;34578;0.000;0.000;2023-07-28T16:37:03;12.18;;;3.47;;
48777;SDS011;34578;0.000;0.000;2023-07-28T16:42:04;4.05;;;2.50;;
48777;SDS011;34578;0.000;0.000;2023-07-28T16:47:06;14.68;;;3.25;;
48777;SDS011;34578;0.000;0.000;2023-07-28T16:52:06;9.57;;;2.00;;
48777;SDS011;34578;0.000;0.000;2023-07-28T16:57:07;9.30;;;2.67;;
48777;SDS011;34578;0.000;0.000;2023-07-28T17:02:08;9.05;;;1.83;;
48777;SDS011;34578;0.000;0.000;2023-07-28T17:07:09;5.70;;;1.93;;
48777;SDS011;34578;0.000;0.000;2023-07-28T17:12:09;5.47;;;2.53;;
48777;SDS011;34578;0.000;0.000;2023-07-28T17:17:10;10.60;;;3.57;;
48777;SDS011;34578;0.000;0.000;2023-07-28T17:22:10;6.47;;;2.70;;
48777;SDS011;34578;0.000;0.000;2023-07-28T17:27:10;12.43;;;2.53;;
48777;SDS011;34578;0.000;0.000;2023-07-28T17:32:11;9.53;;;2.13;;
48777;SDS011;34578;0.000;0.000;2023-07-28T17:37:11;5.85;;;2.33;;
48777;SDS011;34578;0.000;0.000;2023-07-28T17:42:14;5.57;;;2.28;;
48777;SDS011;34578;0.000;0.000;2023-07-28T17:47:15;6.15;;;1.73;;
48777;SDS011;34578;0.000;0.000;2023-07-28T17:52:15;6.68;;;1.77;;
48777;SDS011;34578;0.000;0.000;2023-07-28T17:57:16;4.70;;;2.10;;
48777;SDS011;34578;0.000;0.000;2023-07-28T18:02:17;6.22;;;1.90;;
48777;SDS011;34578;0.000;0.000;2023-07-28T18:07:17;11.52;;;2.75;;
48777;SDS011;34578;0.000;0.000;2023-07-28T18:12:18;4.13;;;2.13;;
48777;SDS011;34578;0.000;0.000;2023-07-28T18:17:19;5.70;;;2.00;;
48777;SDS011;34578;0.000;0.000;2023-07-28T18:22:20;11.88;;;2.60;;
48777;SDS011;34578;0.000;0.000;2023-07-28T18:27:21;6.10;;;2.33;;
48777;SDS011;34578;0.000;0.000;2023-07-28T18:32:21;5.30;;;1.93;;
48777;SDS011;34578;0.000;0.000;2023-07-28T18:37:21;4.33;;;1.97;;
48777;SDS011;34578;0.000;0.000;2023-07-28T18:42:22;5.00;;;2.13;;
48777;SDS011;34578;0.000;0.000;2023-07-28T18:47:22;3.80;;;1.47;;
48777;SDS011;34578;0.000;0.000;2023-07-28T18:52:22;8.20;;;2.23;;
48777;SDS011;34578;0.000;0.000;2023-07-28T18:57:23;6.60;;;2.50;;
48777;SDS011;34578;0.000;0.000;2023-07-28T19:02:23;7.72;;;2.83;;
48777;SDS011;34578;0.000;0.000;2023-07-28T19:07:24;7.68;;;1.92;;
48777;SDS011;34578;0.000;0.000;2023-07-28T19:12:24;4.50;;;1.77;;
48777;SDS011;34578;0.000;0.000;2023-07-28T19:17:24;6.37;;;2.17;;
48777;SDS011;34578;0.000;0.000;2023-07-28T19:22:25;6.33;;;2.53;;
48777;SDS011;34578;0.000;0.000;2023-07-28T19:27:25;4.60;;;1.97;;
48777;SDS011;34578;0.000;0.000;2023-07-28T19:32:25;4.37;;;2.00;;
48777;SDS011;34578;0.000;0.000;2023-07-28T19:37:26;2.17;;;1.35;;
48777;SDS011;34578;0.000;0.000;2023-07-28T19:42:26;6.27;;;2.37;;
48777;SDS011;34578;0.000;0.000;2023-07-28T19:47:27;5.30;;;2.53;;
48777;SDS011;34578;0.000;0.000;2023-07-28T19:52:27;3.72;;;1.70;;
48777;SDS011;34578;0.000;0.000;2023-07-28T19:57:27;5.73;;;1.73;;
48777;SDS011;34578;0.000;0.000;2023-07-28T20:02:28;2.83;;;1.90;;
48777;SDS011;34578;0.000;0.000;2023-07-28T20:07:28;4.20;;;1.70;;
48777;SDS011;34578;0.000;0.000;2023-07-28T20:12:28;3.03;;;1.83;;
48777;SDS011;34578;0.000;0.000;2023-07-28T20:17:30;3.00;;;1.30;;
48777;SDS011;34578;0.000;0.000;2023-07-28T20:22:30;4.15;;;2.55;;
48777;SDS011;34578;0.000;0.000;2023-07-28T20:27:30;3.33;;;1.93;;
48777;SDS011;34578;0.000;0.000;2023-07-28T20:32:32;6.00;;;2.10;;
48777;SDS011;34578;0.000;0.000;2023-07-28T20:37:32;4.03;;;2.00;;
48777;SDS011;34578;0.000;0.000;2023-07-28T20:42:33;4.32;;;1.90;;
48777;SDS011;34578;0.000;0.000;2023-07-28T20:47:33;1.97;;;1.50;;
48777;SDS011;34578;0.000;0.000;2023-07-28T20:52:33;4.20;;;1.50;;
48777;SDS011;34578;0.000;0.000;2023-07-28T20:57:34;5.07;;;2.37;;
48777;SDS011;34578;0.000;0.000;2023-07-28T21:02:34;2.90;;;1.45;;
48777;SDS011;34578;0.000;0.000;2023-07-28T21:07:35;5.00;;;2.15;;
48777;SDS011;34578;0.000;0.000;2023-07-28T21:12:35;2.80;;;1.20;;
48777;SDS011;34578;0.000;0.000;2023-07-28T21:17:36;1.90;;;1.30;;
48777;SDS011;34578;0.000;0.000;2023-07-28T21:22:36;3.83;;;2.10;;
48777;SDS011;34578;0.000;0.000;2023-07-28T21:27:37;3.17;;;2.10;;
48777;SDS011;34578;0.000;0.000;2023-07-28T21:32:38;3.88;;;1.90;;
48777;SDS011;34578;0.000;0.000;2023-07-28T21:37:39;2.03;;;1.23;;
48777;SDS011;34578;0.000;0.000;2023-07-28T21:42:39;4.07;;;1.53;;
48777;SDS011;34578;0.000;0.000;2023-07-28T21:47:39;2.47;;;1.20;;
48777;SDS011;34578;0.000;0.000;2023-07-28T21:52:40;3.43;;;1.17;;
48777;SDS011;34578;0.000;0.000;2023-07-28T21:57:42;4.38;;;1.63;;
48777;SDS011;34578;0.000;0.000;2023-07-28T22:02:46;4.15;;;1.42;;
48777;SDS011;34578;0.000;0.000;2023-07-28T22:07:46;7.43;;;1.73;;
48777;SDS011;34578;0.000;0.000;2023-07-28T22:12:47;2.67;;;1.50;;
48777;SDS011;34578;0.000;0.000;2023-07-28T22:17:47;2.30;;;1.53;;
48777;SDS011;34578;0.000;0.000;2023-07-28T22:22:48;3.23;;;1.50;;
48777;SDS011;34578;0.000;0.000;2023-07-28T22:27:48;1.70;;;1.40;;
48777;SDS011;34578;0.000;0.000;2023-07-28T22:32:48;3.20;;;1.20;;
48777;SDS011;34578;0.000;0.000;2023-07-28T22:37:49;2.30;;;1.17;;
48777;SDS011;34578;0.000;0.000;2023-07-28T22:42:49;2.07;;;1.10;;
48777;SDS011;34578;0.000;0.000;2023-07-28T22:47:50;2.00;;;1.20;;
48777;SDS011;34578;0.000;0.000;2023-07-28T22:52:50;4.93;;;1.23;;
48777;SDS011;34578;0.000;0.000;2023-07-28T22:57:51;2.90;;;1.43;;
48777;SDS011;34578;0.000;0.000;2023-07-28T23:02:51;2.20;;;1.37;;
48777;SDS011;34578;0.000;0.000;2023-07-28T23:07:52;3.20;;;1.88;;
48777;SDS011;34578;0.000;0.000;2023-07-28T23:12:52;2.00;;;1.30;;
48777;SDS011;34578;0.000;0.000;2023-07-28T23:17:53;1.67;;;1.10;;
48777;SDS011;34578;0.000;0.000;2023-07-28T23:22:53;1.53;;;1.17;;
48777;SDS011;34578;0.000;0.000;2023-07-28T23:27:53;2.47;;;1.47;;
48777;SDS011;34578;0.000;0.000;2023-07-28T23:32:54;2.87;;;1.13;;
48777;SDS011;34578;0.000;0.000;2023-07-28T23:37:54;2.07;;;0.90;;
48777;SDS011;34578;0.000;0.000;2023-07-28T23:42:54;5.63;;;1.60;;
48777;SDS011;34578;0.000;0.000;2023-07-28T23:47:55;1.83;;;1.40;;
48777;SDS011;34578;0.000;0.000;2023-07-28T23:52:55;2.13;;;1.57;;
48777;SDS011;34578;0.000;0.000;2023-07-28T23:57:55;3.67;;;1.40;;
